AAL46 YSSY-KLAX
Flight info
| Callsign | AAL46 |
|---|---|
| Flight time | N/A |
| Altitude | 31000 |
| Route | NOBAR A579 JORDY DCT 2943S15959E 2804S16300E 2709S16435E 2447S16904E 2226S17332E 1854S17840E 1618S17815W 1257S17437W 1243S17423W 1132S17313W 0827S17028W 0625S16847W 0500S16738W 0240S16544W 0146S16457W 0237N16106W 0635N15740W 1049N15340W 1438N14947W 1614N14759W 1923N14355W 2223N13907W 2420N13532W 2658N12939W 28N127W DCT FOOTS DCT ELKEY RYDRR2 |
| Aircraft | B77W/H-SDE1E2E3FGHIJ2J3J4J5M1RWXY/LB1D1 |
Departure
| Time | 2026-04-20 03:11 |
|---|---|
| Airport | Sydney Kingsford Smith International Airport (YSSY) |
Arrival
| Time | N/A |
|---|---|
| Airport | Los Angeles International Airport (KLAX) |
| Time | Latitude | Longitude | Altitude | Speed | Heading |
|---|---|---|---|---|---|
| 2026-04-20 02:46 | -33.93255 | 151.16832 | 33 ft | 0 kts | 287° |
| 2026-04-20 03:01 | -33.93255 | 151.16834 | 33 ft | 1 kts | 287° |
| 2026-04-20 03:01 | -33.93260 | 151.16850 | 32 ft | 2 kts | 287° |
| 2026-04-20 03:01 | -33.93264 | 151.16869 | 32 ft | 2 kts | 286° |
| 2026-04-20 03:02 | -33.93268 | 151.16885 | 32 ft | 2 kts | 285° |
| 2026-04-20 03:02 | -33.93272 | 151.16902 | 32 ft | 2 kts | 285° |
| 2026-04-20 03:02 | -33.93276 | 151.16921 | 31 ft | 2 kts | 285° |
| 2026-04-20 03:02 | -33.93280 | 151.16937 | 31 ft | 2 kts | 285° |
| 2026-04-20 03:03 | -33.93284 | 151.16954 | 31 ft | 2 kts | 290° |
| 2026-04-20 03:03 | -33.93288 | 151.16969 | 31 ft | 0 kts | 294° |
| 2026-04-20 03:06 | -33.93280 | 151.16950 | 31 ft | 4 kts | 306° |
| 2026-04-20 03:06 | -33.93241 | 151.16930 | 31 ft | 7 kts | 356° |
| 2026-04-20 03:06 | -33.93181 | 151.16927 | 31 ft | 9 kts | 357° |
| 2026-04-20 03:06 | -33.93116 | 151.16922 | 31 ft | 8 kts | 353° |
| 2026-04-20 03:07 | -33.93061 | 151.16910 | 31 ft | 7 kts | 349° |
| 2026-04-20 03:07 | -33.93018 | 151.16913 | 31 ft | 5 kts | 27° |
| 2026-04-20 03:07 | -33.92994 | 151.16940 | 31 ft | 4 kts | 56° |
| 2026-04-20 03:07 | -33.92980 | 151.16971 | 31 ft | 4 kts | 67° |
| 2026-04-20 03:08 | -33.92974 | 151.16997 | 30 ft | 0 kts | 78° |
| 2026-04-20 03:09 | -33.92974 | 151.17000 | 30 ft | 1 kts | 78° |
| 2026-04-20 03:09 | -33.92969 | 151.17027 | 30 ft | 5 kts | 78° |
| 2026-04-20 03:09 | -33.92959 | 151.17087 | 29 ft | 7 kts | 78° |
| 2026-04-20 03:09 | -33.92957 | 151.17140 | 29 ft | 5 kts | 111° |
| 2026-04-20 03:10 | -33.92972 | 151.17160 | 30 ft | 2 kts | 147° |
| 2026-04-20 03:10 | -33.92995 | 151.17172 | 31 ft | 6 kts | 162° |
| 2026-04-20 03:10 | -33.93130 | 151.17210 | 30 ft | 47 kts | 168° |
| 2026-04-20 03:10 | -33.93696 | 151.17357 | 18 ft | 119 kts | 168° |
| 2026-04-20 03:11 | -33.94731 | 151.17624 | 31 ft | 181 kts | 168° |
| 2026-04-20 03:11 | -33.96023 | 151.17976 | 671 ft | 190 kts | 168° |
| 2026-04-20 03:11 | -33.97354 | 151.18095 | 1411 ft | 196 kts | 184° |
| 2026-04-20 03:11 | -33.98779 | 151.17941 | 1697 ft | 214 kts | 184° |
| 2026-04-20 03:12 | -34.00336 | 151.17766 | 1977 ft | 233 kts | 184° |
| 2026-04-20 03:12 | -34.02018 | 151.17584 | 2412 ft | 246 kts | 181° |
| 2026-04-20 03:12 | -34.03690 | 151.17847 | 3117 ft | 246 kts | 166° |
| 2026-04-20 03:12 | -34.05344 | 151.18381 | 3814 ft | 247 kts | 165° |
| 2026-04-20 03:13 | -34.06997 | 151.18938 | 4502 ft | 249 kts | 165° |
| 2026-04-20 03:13 | -34.08692 | 151.19507 | 5154 ft | 252 kts | 166° |
| 2026-04-20 03:13 | -34.10361 | 151.20065 | 5836 ft | 252 kts | 166° |
| 2026-04-20 03:13 | -34.12075 | 151.20636 | 6511 ft | 253 kts | 166° |
| 2026-04-20 03:14 | -34.13736 | 151.21332 | 7100 ft | 258 kts | 152° |
| 2026-04-20 03:14 | -34.15140 | 151.22728 | 7681 ft | 265 kts | 130° |
| 2026-04-20 03:14 | -34.16008 | 151.24777 | 8244 ft | 274 kts | 107° |
| 2026-04-20 03:14 | -34.16108 | 151.27087 | 8778 ft | 285 kts | 83° |
| 2026-04-20 03:15 | -34.15362 | 151.29329 | 9356 ft | 295 kts | 57° |
| 2026-04-20 03:15 | -34.13935 | 151.31175 | 9913 ft | 301 kts | 46° |
| 2026-04-20 03:15 | -34.12397 | 151.32912 | 10435 ft | 306 kts | 47° |
| 2026-04-20 03:15 | -34.10846 | 151.34740 | 10859 ft | 314 kts | 48° |
| 2026-04-20 03:16 | -34.09277 | 151.36642 | 11234 ft | 325 kts | 49° |
| 2026-04-20 03:16 | -34.07637 | 151.38652 | 11440 ft | 343 kts | 49° |
| 2026-04-20 03:16 | -34.05877 | 151.40808 | 11677 ft | 360 kts | 48° |
| 2026-04-20 03:16 | -34.04069 | 151.43024 | 11924 ft | 377 kts | 48° |
| 2026-04-20 03:17 | -34.02191 | 151.45322 | 12214 ft | 393 kts | 48° |
| 2026-04-20 03:17 | -34.00222 | 151.47728 | 12679 ft | 403 kts | 48° |
| 2026-04-20 03:17 | -33.98261 | 151.50124 | 13358 ft | 406 kts | 48° |
| 2026-04-20 03:17 | -33.96256 | 151.52570 | 14091 ft | 408 kts | 48° |
| 2026-04-20 03:18 | -33.94260 | 151.55005 | 14723 ft | 413 kts | 48° |
| 2026-04-20 03:18 | -33.92213 | 151.57500 | 15304 ft | 418 kts | 48° |
| 2026-04-20 03:18 | -33.90163 | 151.59998 | 15920 ft | 423 kts | 48° |
| 2026-04-20 03:18 | -33.88091 | 151.62520 | 16578 ft | 425 kts | 48° |
| 2026-04-20 03:19 | -33.86006 | 151.65056 | 17197 ft | 429 kts | 47° |
| 2026-04-20 03:19 | -33.83890 | 151.67629 | 17764 ft | 433 kts | 47° |
| 2026-04-20 03:19 | -33.81746 | 151.70233 | 18324 ft | 438 kts | 47° |
| 2026-04-20 03:19 | -33.79613 | 151.72891 | 18880 ft | 440 kts | 52° |
| 2026-04-20 03:20 | -33.77822 | 151.75844 | 19374 ft | 441 kts | 62° |
| 2026-04-20 03:20 | -33.76320 | 151.79050 | 19949 ft | 443 kts | 64° |
| 2026-04-20 03:20 | -33.74835 | 151.82326 | 20561 ft | 445 kts | 65° |
| 2026-04-20 03:20 | -33.73346 | 151.85611 | 21085 ft | 449 kts | 65° |
| 2026-04-20 03:21 | -33.71868 | 151.88864 | 21548 ft | 454 kts | 65° |
| 2026-04-20 03:21 | -33.70316 | 151.92276 | 22072 ft | 457 kts | 65° |
| 2026-04-20 03:21 | -33.68776 | 151.95654 | 22595 ft | 460 kts | 65° |
| 2026-04-20 03:21 | -33.67233 | 151.99037 | 23083 ft | 463 kts | 65° |
| 2026-04-20 03:22 | -33.65682 | 152.02432 | 23494 ft | 468 kts | 65° |
| 2026-04-20 03:22 | -33.64097 | 152.05896 | 23930 ft | 472 kts | 65° |
| 2026-04-20 03:22 | -33.62520 | 152.09338 | 24449 ft | 474 kts | 65° |
| 2026-04-20 03:22 | -33.60932 | 152.12801 | 24929 ft | 477 kts | 65° |
| 2026-04-20 03:23 | -33.59326 | 152.16301 | 25325 ft | 481 kts | 65° |
| 2026-04-20 03:23 | -33.57717 | 152.19801 | 25762 ft | 483 kts | 65° |
| 2026-04-20 03:23 | -33.56082 | 152.23357 | 26236 ft | 485 kts | 65° |
| 2026-04-20 03:23 | -33.54443 | 152.26915 | 26640 ft | 489 kts | 65° |
| 2026-04-20 03:24 | -33.52809 | 152.30463 | 27000 ft | 493 kts | 65° |
| 2026-04-20 03:24 | -33.51146 | 152.34067 | 27372 ft | 496 kts | 65° |
| 2026-04-20 03:24 | -33.49465 | 152.37706 | 27784 ft | 499 kts | 65° |
| 2026-04-20 03:24 | -33.47769 | 152.41374 | 28192 ft | 502 kts | 65° |
| 2026-04-20 03:25 | -33.46077 | 152.45032 | 28579 ft | 504 kts | 65° |
| 2026-04-20 03:25 | -33.44370 | 152.48715 | 28935 ft | 508 kts | 65° |
| 2026-04-20 03:25 | -33.42647 | 152.52432 | 29270 ft | 512 kts | 65° |
| 2026-04-20 03:25 | -33.40913 | 152.56168 | 29691 ft | 513 kts | 65° |
| 2026-04-20 03:26 | -33.39183 | 152.59886 | 30240 ft | 512 kts | 65° |
| 2026-04-20 03:26 | -33.37452 | 152.63603 | 30808 ft | 509 kts | 65° |
| 2026-04-20 03:26 | -33.35737 | 152.67288 | 31185 ft | 510 kts | 65° |
| 2026-04-20 03:27 | -33.32265 | 152.74731 | 31209 ft | 509 kts | 65° |
| 2026-04-20 03:27 | -33.28830 | 152.82080 | 31211 ft | 509 kts | 65° |
| 2026-04-20 03:28 | -33.25363 | 152.89484 | 31204 ft | 509 kts | 64° |
| 2026-04-20 03:28 | -33.20176 | 153.00529 | 31207 ft | 509 kts | 64° |
| 2026-04-20 03:29 | -33.16713 | 153.07886 | 31204 ft | 509 kts | 64° |
| 2026-04-20 03:29 | -33.13232 | 153.15266 | 31202 ft | 508 kts | 64° |
| 2026-04-20 03:30 | -33.09761 | 153.22610 | 31200 ft | 509 kts | 64° |
| 2026-04-20 03:30 | -33.06278 | 153.29965 | 31195 ft | 509 kts | 64° |
| 2026-04-20 03:31 | -33.02799 | 153.37294 | 31201 ft | 510 kts | 64° |
| 2026-04-20 03:31 | -32.99278 | 153.44698 | 31196 ft | 510 kts | 64° |
| 2026-04-20 03:32 | -32.95800 | 153.51997 | 31195 ft | 509 kts | 64° |
| 2026-04-20 03:32 | -32.92310 | 153.59306 | 31200 ft | 508 kts | 64° |
| 2026-04-20 03:33 | -32.88799 | 153.66646 | 31185 ft | 509 kts | 63° |
| 2026-04-20 03:33 | -32.85284 | 153.73979 | 31184 ft | 511 kts | 63° |
| 2026-04-20 03:34 | -32.81741 | 153.81354 | 31174 ft | 509 kts | 63° |
| 2026-04-20 03:34 | -32.78252 | 153.88600 | 31178 ft | 509 kts | 63° |
| 2026-04-20 03:35 | -32.74717 | 153.95931 | 31174 ft | 509 kts | 63° |
| 2026-04-20 03:35 | -32.71216 | 154.03175 | 31166 ft | 509 kts | 63° |
| 2026-04-20 03:36 | -32.67677 | 154.10486 | 31167 ft | 510 kts | 63° |
| 2026-04-20 03:36 | -32.64145 | 154.17766 | 31168 ft | 510 kts | 63° |
| 2026-04-20 03:37 | -32.60607 | 154.25043 | 31164 ft | 511 kts | 63° |
| 2026-04-20 03:37 | -32.57051 | 154.32344 | 31161 ft | 511 kts | 62° |
| 2026-04-20 03:38 | -32.53501 | 154.39618 | 31160 ft | 512 kts | 63° |
| 2026-04-20 03:38 | -32.49936 | 154.46907 | 31150 ft | 512 kts | 62° |
| 2026-04-20 03:39 | -32.46378 | 154.54170 | 31149 ft | 513 kts | 62° |
| 2026-04-20 03:39 | -32.42793 | 154.61472 | 31155 ft | 513 kts | 62° |
| 2026-04-20 03:40 | -32.39204 | 154.68768 | 31147 ft | 514 kts | 62° |
| 2026-04-20 03:40 | -32.35687 | 154.76176 | 31141 ft | 515 kts | 63° |
| 2026-04-20 03:41 | -32.32243 | 154.83495 | 31144 ft | 514 kts | 63° |
| 2026-04-20 03:42 | -32.25264 | 154.98253 | 31137 ft | 514 kts | 63° |
| 2026-04-20 03:42 | -32.21778 | 155.05595 | 31144 ft | 514 kts | 63° |
| 2026-04-20 03:43 | -32.18293 | 155.12921 | 31135 ft | 515 kts | 63° |
| 2026-04-20 03:43 | -32.14783 | 155.20281 | 31132 ft | 515 kts | 63° |
| 2026-04-20 03:44 | -32.11268 | 155.27637 | 31137 ft | 517 kts | 63° |
| 2026-04-20 03:44 | -32.07745 | 155.34994 | 31129 ft | 517 kts | 62° |
| 2026-04-20 03:45 | -32.04198 | 155.42387 | 31117 ft | 517 kts | 63° |
| 2026-04-20 03:45 | -32.00666 | 155.49733 | 31118 ft | 518 kts | 62° |
| 2026-04-20 03:46 | -31.97099 | 155.57141 | 31107 ft | 518 kts | 62° |
| 2026-04-20 03:46 | -31.93561 | 155.64470 | 31109 ft | 518 kts | 62° |
| 2026-04-20 03:47 | -31.89999 | 155.71837 | 31103 ft | 519 kts | 62° |
| 2026-04-20 03:47 | -31.86426 | 155.79211 | 31093 ft | 519 kts | 62° |
| 2026-04-20 03:48 | -31.82844 | 155.86591 | 31097 ft | 520 kts | 62° |
| 2026-04-20 03:48 | -31.79240 | 155.93999 | 31090 ft | 520 kts | 62° |
| 2026-04-20 03:49 | -31.75634 | 156.01396 | 31093 ft | 520 kts | 62° |
| 2026-04-20 03:49 | -31.72034 | 156.08768 | 31093 ft | 521 kts | 62° |
| 2026-04-20 03:50 | -31.68393 | 156.16211 | 31089 ft | 522 kts | 61° |
| 2026-04-20 03:50 | -31.64771 | 156.23598 | 31087 ft | 522 kts | 61° |
| 2026-04-20 03:51 | -31.61152 | 156.30965 | 31088 ft | 523 kts | 61° |
| 2026-04-20 03:51 | -31.57513 | 156.38359 | 31084 ft | 524 kts | 61° |
| 2026-04-20 03:52 | -31.53858 | 156.45770 | 31087 ft | 524 kts | 61° |
| 2026-04-20 03:52 | -31.50205 | 156.53163 | 31086 ft | 525 kts | 61° |
| 2026-04-20 03:53 | -31.46544 | 156.60558 | 31086 ft | 526 kts | 61° |
| 2026-04-20 03:53 | -31.42863 | 156.67976 | 31077 ft | 526 kts | 60° |
| 2026-04-20 03:54 | -31.39184 | 156.75380 | 31079 ft | 526 kts | 60° |
| 2026-04-20 03:54 | -31.35496 | 156.82785 | 31076 ft | 528 kts | 60° |
| 2026-04-20 03:55 | -31.31812 | 156.90170 | 31075 ft | 526 kts | 60° |
| 2026-04-20 03:55 | -31.28104 | 156.97588 | 31075 ft | 526 kts | 60° |
| 2026-04-20 03:56 | -31.24402 | 157.04977 | 31076 ft | 528 kts | 60° |
| 2026-04-20 03:56 | -31.20711 | 157.12334 | 31075 ft | 526 kts | 60° |
| 2026-04-20 03:57 | -31.17001 | 157.19713 | 31074 ft | 528 kts | 60° |
| 2026-04-20 03:57 | -31.13267 | 157.27124 | 31073 ft | 530 kts | 60° |
| 2026-04-20 03:58 | -31.09501 | 157.34586 | 31072 ft | 529 kts | 60° |
| 2026-04-20 03:58 | -31.05769 | 157.41965 | 31072 ft | 531 kts | 60° |
| 2026-04-20 03:59 | -31.02025 | 157.49355 | 31069 ft | 530 kts | 59° |
| 2026-04-20 03:59 | -30.98260 | 157.56770 | 31071 ft | 530 kts | 59° |
| 2026-04-20 04:00 | -30.94477 | 157.64209 | 31073 ft | 529 kts | 59° |
| 2026-04-20 04:00 | -30.90583 | 157.71849 | 31060 ft | 530 kts | 59° |
| 2026-04-20 04:01 | -30.86680 | 157.79494 | 31056 ft | 532 kts | 59° |
| 2026-04-20 04:01 | -30.82781 | 157.87115 | 31059 ft | 530 kts | 59° |
| 2026-04-20 04:02 | -30.78867 | 157.94750 | 31055 ft | 531 kts | 58° |
| 2026-04-20 04:02 | -30.74955 | 158.02367 | 31052 ft | 532 kts | 59° |
| 2026-04-20 04:03 | -30.71031 | 158.09993 | 31047 ft | 532 kts | 58° |
| 2026-04-20 04:03 | -30.67085 | 158.17644 | 31052 ft | 533 kts | 58° |
| 2026-04-20 04:04 | -30.63180 | 158.25203 | 31051 ft | 533 kts | 58° |
| 2026-04-20 04:04 | -30.59224 | 158.32844 | 31050 ft | 534 kts | 58° |
| 2026-04-20 04:05 | -30.55262 | 158.40485 | 31046 ft | 533 kts | 58° |
| 2026-04-20 04:05 | -30.51290 | 158.48128 | 31048 ft | 534 kts | 58° |
| 2026-04-20 04:06 | -30.47308 | 158.55777 | 31050 ft | 534 kts | 58° |
| 2026-04-20 04:06 | -30.43310 | 158.63440 | 31045 ft | 533 kts | 58° |
| 2026-04-20 04:07 | -30.39383 | 158.70953 | 31033 ft | 533 kts | 57° |
| 2026-04-20 04:07 | -30.35386 | 158.78586 | 31032 ft | 534 kts | 57° |
| 2026-04-20 04:08 | -30.31403 | 158.86177 | 31031 ft | 536 kts | 57° |
| 2026-04-20 04:08 | -30.27408 | 158.93776 | 31021 ft | 534 kts | 57° |
| 2026-04-20 04:09 | -30.23401 | 159.01386 | 31013 ft | 534 kts | 57° |
| 2026-04-20 04:09 | -30.19384 | 159.08997 | 31016 ft | 535 kts | 57° |
| 2026-04-20 04:10 | -30.15384 | 159.16563 | 31013 ft | 534 kts | 57° |
| 2026-04-20 04:10 | -30.11380 | 159.24123 | 31012 ft | 534 kts | 57° |
| 2026-04-20 04:11 | -30.07348 | 159.31720 | 31012 ft | 534 kts | 57° |
| 2026-04-20 04:11 | -30.03342 | 159.39253 | 31013 ft | 535 kts | 57° |
| 2026-04-20 04:12 | -29.99301 | 159.46840 | 31007 ft | 535 kts | 56° |
| 2026-04-20 04:12 | -29.95259 | 159.54411 | 31011 ft | 536 kts | 56° |
| 2026-04-20 04:13 | -29.91218 | 159.61969 | 31013 ft | 536 kts | 57° |
| 2026-04-20 04:13 | -29.87190 | 159.69487 | 30997 ft | 536 kts | 56° |
| 2026-04-20 04:14 | -29.83127 | 159.77057 | 30993 ft | 539 kts | 56° |
| 2026-04-20 04:14 | -29.79040 | 159.84657 | 30993 ft | 536 kts | 56° |
| 2026-04-20 04:15 | -29.74973 | 159.92206 | 30995 ft | 539 kts | 55° |
| 2026-04-20 04:15 | -29.70883 | 159.99791 | 30982 ft | 539 kts | 56° |
| 2026-04-20 04:16 | -29.66891 | 160.07353 | 30983 ft | 540 kts | 56° |
| 2026-04-20 04:16 | -29.62977 | 160.14767 | 30995 ft | 542 kts | 56° |
| 2026-04-20 04:17 | -29.59014 | 160.22253 | 30995 ft | 541 kts | 56° |
| 2026-04-20 04:17 | -29.55092 | 160.29648 | 30989 ft | 541 kts | 56° |
| 2026-04-20 04:18 | -29.51158 | 160.37047 | 30990 ft | 543 kts | 56° |
| 2026-04-20 04:18 | -29.47216 | 160.44449 | 30989 ft | 541 kts | 55° |
| 2026-04-20 04:19 | -29.43292 | 160.51802 | 30991 ft | 543 kts | 55° |
| 2026-04-20 04:19 | -29.39346 | 160.59181 | 30989 ft | 542 kts | 55° |
| 2026-04-20 04:20 | -29.35383 | 160.66582 | 30982 ft | 543 kts | 55° |
| 2026-04-20 04:20 | -29.31425 | 160.73959 | 30968 ft | 542 kts | 54° |
| 2026-04-20 04:21 | -29.27473 | 160.81310 | 30968 ft | 545 kts | 54° |
| 2026-04-20 04:21 | -29.23514 | 160.88663 | 30967 ft | 542 kts | 54° |
| 2026-04-20 04:22 | -29.19522 | 160.96060 | 30963 ft | 544 kts | 54° |
| 2026-04-20 04:22 | -29.15552 | 161.03409 | 30956 ft | 542 kts | 54° |
| 2026-04-20 04:23 | -29.11568 | 161.10767 | 30952 ft | 543 kts | 54° |
| 2026-04-20 04:23 | -29.07582 | 161.18115 | 30956 ft | 546 kts | 54° |
| 2026-04-20 04:24 | -29.03589 | 161.25465 | 30949 ft | 545 kts | 54° |
| 2026-04-20 04:24 | -28.99590 | 161.32811 | 30949 ft | 545 kts | 54° |
| 2026-04-20 04:25 | -28.95583 | 161.40160 | 30950 ft | 545 kts | 54° |
| 2026-04-20 04:25 | -28.91513 | 161.47610 | 30952 ft | 546 kts | 53° |
| 2026-04-20 04:26 | -28.87495 | 161.54953 | 30961 ft | 545 kts | 53° |
| 2026-04-20 04:26 | -28.83458 | 161.62318 | 30958 ft | 546 kts | 53° |
| 2026-04-20 04:27 | -28.79407 | 161.69693 | 30951 ft | 547 kts | 53° |
| 2026-04-20 04:27 | -28.75360 | 161.77051 | 30940 ft | 546 kts | 53° |
| 2026-04-20 04:28 | -28.71322 | 161.84380 | 30939 ft | 547 kts | 53° |
| 2026-04-20 04:28 | -28.67266 | 161.91727 | 30944 ft | 546 kts | 52° |
| 2026-04-20 04:29 | -28.63242 | 161.99004 | 30950 ft | 546 kts | 53° |
| 2026-04-20 04:29 | -28.59152 | 162.06384 | 30949 ft | 547 kts | 52° |
| 2026-04-20 04:30 | -28.55099 | 162.13687 | 30951 ft | 549 kts | 53° |
| 2026-04-20 04:30 | -28.51026 | 162.21014 | 30940 ft | 547 kts | 52° |
| 2026-04-20 04:31 | -28.46946 | 162.28340 | 30955 ft | 550 kts | 52° |
| 2026-04-20 04:31 | -28.42853 | 162.35678 | 30946 ft | 549 kts | 52° |
| 2026-04-20 04:32 | -28.38765 | 162.42993 | 30948 ft | 549 kts | 52° |
| 2026-04-20 04:32 | -28.34675 | 162.50301 | 30956 ft | 549 kts | 52° |
| 2026-04-20 04:33 | -28.30569 | 162.57622 | 30940 ft | 550 kts | 52° |
| 2026-04-20 04:33 | -28.26468 | 162.64923 | 30959 ft | 550 kts | 52° |
| 2026-04-20 04:34 | -28.22334 | 162.72270 | 30927 ft | 549 kts | 51° |
| 2026-04-20 04:34 | -28.18235 | 162.79542 | 30931 ft | 551 kts | 51° |
| 2026-04-20 04:35 | -28.14106 | 162.86858 | 30934 ft | 548 kts | 51° |
| 2026-04-20 04:35 | -28.09979 | 162.94151 | 30921 ft | 550 kts | 51° |
| 2026-04-20 04:36 | -28.03759 | 163.05113 | 30923 ft | 553 kts | 51° |
| 2026-04-20 04:37 | -27.99616 | 163.12387 | 30921 ft | 550 kts | 51° |
| 2026-04-20 04:37 | -27.95482 | 163.19632 | 30918 ft | 550 kts | 51° |
| 2026-04-20 04:38 | -27.91306 | 163.26938 | 30931 ft | 552 kts | 50° |
| 2026-04-20 04:38 | -27.87140 | 163.34215 | 30932 ft | 551 kts | 50° |
| 2026-04-20 04:39 | -27.82982 | 163.41466 | 30942 ft | 553 kts | 50° |
| 2026-04-20 04:39 | -27.78783 | 163.48776 | 30936 ft | 551 kts | 50° |
| 2026-04-20 04:40 | -27.74582 | 163.56074 | 30941 ft | 553 kts | 50° |
| 2026-04-20 04:40 | -27.70402 | 163.63330 | 30947 ft | 551 kts | 50° |
| 2026-04-20 04:41 | -27.66220 | 163.70572 | 30915 ft | 553 kts | 49° |
| 2026-04-20 04:41 | -27.62012 | 163.77850 | 30916 ft | 553 kts | 49° |
| 2026-04-20 04:42 | -27.57789 | 163.85136 | 30915 ft | 556 kts | 49° |
| 2026-04-20 04:42 | -27.53580 | 163.92397 | 30897 ft | 551 kts | 49° |
| 2026-04-20 04:43 | -27.49385 | 163.99612 | 30913 ft | 554 kts | 49° |
| 2026-04-20 04:43 | -27.45136 | 164.06911 | 30933 ft | 555 kts | 49° |
| 2026-04-20 04:44 | -27.40852 | 164.14258 | 30920 ft | 554 kts | 49° |
| 2026-04-20 04:44 | -27.36597 | 164.21542 | 30931 ft | 554 kts | 48° |
| 2026-04-20 04:45 | -27.32368 | 164.28769 | 30920 ft | 556 kts | 48° |
| 2026-04-20 04:45 | -27.28128 | 164.36006 | 30925 ft | 555 kts | 48° |
| 2026-04-20 04:46 | -27.23885 | 164.43234 | 30912 ft | 556 kts | 48° |
| 2026-04-20 04:46 | -27.19612 | 164.50501 | 30938 ft | 557 kts | 48° |
| 2026-04-20 04:47 | -27.15355 | 164.57732 | 30914 ft | 555 kts | 48° |
| 2026-04-20 04:47 | -27.11383 | 164.65233 | 30918 ft | 561 kts | 52° |
| 2026-04-20 04:48 | -27.07555 | 164.72965 | 30895 ft | 561 kts | 52° |
| 2026-04-20 04:48 | -27.03735 | 164.80620 | 30921 ft | 562 kts | 52° |
| 2026-04-20 04:49 | -26.99906 | 164.88248 | 30903 ft | 563 kts | 52° |
| 2026-04-20 04:49 | -26.96052 | 164.95889 | 30909 ft | 567 kts | 52° |
| 2026-04-20 04:50 | -26.92171 | 165.03567 | 30903 ft | 561 kts | 51° |
| 2026-04-20 04:50 | -26.88327 | 165.11150 | 30915 ft | 563 kts | 52° |
| 2026-04-20 04:51 | -26.84429 | 165.18820 | 30912 ft | 563 kts | 51° |
| 2026-04-20 04:51 | -26.80531 | 165.26472 | 30903 ft | 567 kts | 52° |
| 2026-04-20 04:52 | -26.76585 | 165.34212 | 30899 ft | 565 kts | 52° |
| 2026-04-20 04:52 | -26.72659 | 165.41891 | 30907 ft | 567 kts | 51° |
| 2026-04-20 04:53 | -26.68762 | 165.49507 | 30918 ft | 565 kts | 51° |